Terminal Aerodrome Forecast
Issued by NWS St Louis, MO

Home | Current Version | Previous Version | Text Only | Print | Product List | Glossary On
Versions: 1 2 3 4 5 6 7 8 9 10 11 12 13 14 15 16 17 18 19 20 21 22 23 24 25 26 27 28 29
140
FTUS43 KLSX 150536
TAFSTL
TAF
KSTL 150536Z 1506/1612 VRB04KT 2SM -FZDZ BR OVC008
     FM150900 VRB04KT 2SM -FZRA BR OVC007
     FM151900 08005KT 2SM -RA BR OVC006
     FM160000 09005KT 3SM BR OVC005=

USA.gov is the U.S. government's official web portal to all federal, state and local government web resources and services.